sensor_id;sensor_type;location;lat;lon;timestamp;P1;durP1;ratioP1;P2;durP2;ratioP2
15990;SDS011;8100;50.994;4.538;2023-04-06T00:01:30;17.42;;;9.50;;
15990;SDS011;8100;50.994;4.538;2023-04-06T00:04:17;15.20;;;9.63;;
15990;SDS011;8100;50.994;4.538;2023-04-06T00:07:04;16.15;;;9.57;;
15990;SDS011;8100;50.994;4.538;2023-04-06T00:09:52;17.50;;;9.77;;
15990;SDS011;8100;50.994;4.538;2023-04-06T00:12:39;17.88;;;9.38;;
15990;SDS011;8100;50.994;4.538;2023-04-06T00:15:28;15.90;;;9.50;;
15990;SDS011;8100;50.994;4.538;2023-04-06T00:18:15;18.23;;;10.18;;
15990;SDS011;8100;50.994;4.538;2023-04-06T00:21:02;14.10;;;9.32;;
15990;SDS011;8100;50.994;4.538;2023-04-06T00:23:50;14.73;;;9.60;;
15990;SDS011;8100;50.994;4.538;2023-04-06T00:26:37;15.30;;;9.50;;
15990;SDS011;8100;50.994;4.538;2023-04-06T00:29:25;15.90;;;9.38;;
15990;SDS011;8100;50.994;4.538;2023-04-06T00:32:14;16.08;;;9.55;;
15990;SDS011;8100;50.994;4.538;2023-04-06T00:35:01;18.45;;;10.05;;
15990;SDS011;8100;50.994;4.538;2023-04-06T00:37:49;13.45;;;9.05;;
15990;SDS011;8100;50.994;4.538;2023-04-06T00:40:36;18.23;;;10.25;;
15990;SDS011;8100;50.994;4.538;2023-04-06T00:43:24;20.58;;;10.82;;
15990;SDS011;8100;50.994;4.538;2023-04-06T00:46:12;17.80;;;10.30;;
15990;SDS011;8100;50.994;4.538;2023-04-06T00:49:01;19.02;;;11.15;;
15990;SDS011;8100;50.994;4.538;2023-04-06T00:51:48;17.25;;;10.10;;
15990;SDS011;8100;50.994;4.538;2023-04-06T00:54:36;17.13;;;10.63;;
15990;SDS011;8100;50.994;4.538;2023-04-06T00:57:23;19.40;;;10.27;;
15990;SDS011;8100;50.994;4.538;2023-04-06T01:00:11;16.02;;;9.82;;
15990;SDS011;8100;50.994;4.538;2023-04-06T01:02:59;18.33;;;10.07;;
15990;SDS011;8100;50.994;4.538;2023-04-06T01:05:48;19.05;;;11.05;;
15990;SDS011;8100;50.994;4.538;2023-04-06T01:08:37;16.33;;;10.25;;
15990;SDS011;8100;50.994;4.538;2023-04-06T01:11:25;14.85;;;9.63;;
15990;SDS011;8100;50.994;4.538;2023-04-06T01:14:12;16.55;;;9.63;;
15990;SDS011;8100;50.994;4.538;2023-04-06T01:17:00;16.70;;;9.45;;
15990;SDS011;8100;50.994;4.538;2023-04-06T01:19:48;16.98;;;9.55;;
15990;SDS011;8100;50.994;4.538;2023-04-06T01:22:38;16.42;;;9.15;;
15990;SDS011;8100;50.994;4.538;2023-04-06T01:25:25;16.13;;;9.10;;
15990;SDS011;8100;50.994;4.538;2023-04-06T01:28:12;16.90;;;10.15;;
15990;SDS011;8100;50.994;4.538;2023-04-06T01:31:00;17.30;;;9.30;;
15990;SDS011;8100;50.994;4.538;2023-04-06T01:33:47;15.48;;;9.48;;
15990;SDS011;8100;50.994;4.538;2023-04-06T01:36:35;20.15;;;10.98;;
15990;SDS011;8100;50.994;4.538;2023-04-06T01:39:23;17.45;;;10.40;;
15990;SDS011;8100;50.994;4.538;2023-04-06T01:42:11;20.33;;;9.30;;
15990;SDS011;8100;50.994;4.538;2023-04-06T01:44:58;18.75;;;9.65;;
15990;SDS011;8100;50.994;4.538;2023-04-06T01:47:46;16.42;;;9.77;;
15990;SDS011;8100;50.994;4.538;2023-04-06T01:50:33;20.75;;;10.52;;
15990;SDS011;8100;50.994;4.538;2023-04-06T01:53:21;17.55;;;9.65;;
15990;SDS011;8100;50.994;4.538;2023-04-06T01:56:10;18.95;;;9.80;;
15990;SDS011;8100;50.994;4.538;2023-04-06T01:58:57;15.75;;;9.00;;
15990;SDS011;8100;50.994;4.538;2023-04-06T02:01:44;16.33;;;9.07;;
15990;SDS011;8100;50.994;4.538;2023-04-06T02:04:32;17.35;;;9.63;;
15990;SDS011;8100;50.994;4.538;2023-04-06T02:07:19;14.52;;;8.85;;
15990;SDS011;8100;50.994;4.538;2023-04-06T02:10:10;16.90;;;8.23;;
15990;SDS011;8100;50.994;4.538;2023-04-06T02:13:00;13.43;;;8.60;;
15990;SDS011;8100;50.994;4.538;2023-04-06T02:15:47;14.82;;;8.68;;
15990;SDS011;8100;50.994;4.538;2023-04-06T02:18:35;15.88;;;8.32;;
15990;SDS011;8100;50.994;4.538;2023-04-06T02:21:22;16.27;;;8.52;;
15990;SDS011;8100;50.994;4.538;2023-04-06T02:24:10;14.68;;;8.95;;
15990;SDS011;8100;50.994;4.538;2023-04-06T02:26:57;14.10;;;8.18;;
15990;SDS011;8100;50.994;4.538;2023-04-06T02:29:46;14.43;;;9.02;;
15990;SDS011;8100;50.994;4.538;2023-04-06T02:32:34;16.02;;;8.82;;
15990;SDS011;8100;50.994;4.538;2023-04-06T02:35:21;15.82;;;8.90;;
15990;SDS011;8100;50.994;4.538;2023-04-06T02:38:08;15.60;;;8.93;;
15990;SDS011;8100;50.994;4.538;2023-04-06T02:40:56;15.77;;;8.90;;
15990;SDS011;8100;50.994;4.538;2023-04-06T02:43:43;13.48;;;8.13;;
15990;SDS011;8100;50.994;4.538;2023-04-06T02:46:32;16.05;;;9.05;;
15990;SDS011;8100;50.994;4.538;2023-04-06T02:49:19;15.05;;;8.75;;
15990;SDS011;8100;50.994;4.538;2023-04-06T02:52:07;14.73;;;8.35;;
15990;SDS011;8100;50.994;4.538;2023-04-06T02:54:54;14.90;;;8.50;;
15990;SDS011;8100;50.994;4.538;2023-04-06T02:57:41;16.42;;;9.43;;
15990;SDS011;8100;50.994;4.538;2023-04-06T03:00:29;17.92;;;9.27;;
15990;SDS011;8100;50.994;4.538;2023-04-06T03:03:17;16.77;;;9.10;;
15990;SDS011;8100;50.994;4.538;2023-04-06T03:06:05;20.85;;;9.73;;
15990;SDS011;8100;50.994;4.538;2023-04-06T03:08:53;15.68;;;9.50;;
15990;SDS011;8100;50.994;4.538;2023-04-06T03:11:40;17.30;;;9.23;;
15990;SDS011;8100;50.994;4.538;2023-04-06T03:14:27;17.17;;;9.77;;
15990;SDS011;8100;50.994;4.538;2023-04-06T03:17:15;16.77;;;9.15;;
15990;SDS011;8100;50.994;4.538;2023-04-06T03:20:04;16.50;;;9.30;;
15990;SDS011;8100;50.994;4.538;2023-04-06T03:22:51;17.90;;;9.45;;
15990;SDS011;8100;50.994;4.538;2023-04-06T03:25:39;16.95;;;9.00;;
15990;SDS011;8100;50.994;4.538;2023-04-06T03:28:26;17.70;;;9.00;;
15990;SDS011;8100;50.994;4.538;2023-04-06T03:31:13;18.40;;;9.23;;
15990;SDS011;8100;50.994;4.538;2023-04-06T03:34:01;17.77;;;9.10;;
15990;SDS011;8100;50.994;4.538;2023-04-06T03:36:49;18.05;;;8.95;;
15990;SDS011;8100;50.994;4.538;2023-04-06T03:39:37;15.60;;;9.13;;
15990;SDS011;8100;50.994;4.538;2023-04-06T03:42:24;18.00;;;9.18;;
15990;SDS011;8100;50.994;4.538;2023-04-06T03:45:12;18.77;;;9.32;;
15990;SDS011;8100;50.994;4.538;2023-04-06T03:47:59;19.65;;;9.40;;
15990;SDS011;8100;50.994;4.538;2023-04-06T03:50:47;15.30;;;9.50;;
15990;SDS011;8100;50.994;4.538;2023-04-06T03:53:36;16.65;;;9.13;;
15990;SDS011;8100;50.994;4.538;2023-04-06T03:56:23;16.90;;;9.35;;
15990;SDS011;8100;50.994;4.538;2023-04-06T03:59:10;15.43;;;9.10;;
15990;SDS011;8100;50.994;4.538;2023-04-06T04:01:58;19.30;;;10.02;;
15990;SDS011;8100;50.994;4.538;2023-04-06T04:04:45;16.67;;;9.45;;
15990;SDS011;8100;50.994;4.538;2023-04-06T04:07:33;17.08;;;9.25;;
15990;SDS011;8100;50.994;4.538;2023-04-06T04:10:22;16.75;;;9.43;;
15990;SDS011;8100;50.994;4.538;2023-04-06T04:13:09;16.83;;;9.85;;
15990;SDS011;8100;50.994;4.538;2023-04-06T04:15:56;16.67;;;9.20;;
15990;SDS011;8100;50.994;4.538;2023-04-06T04:18:43;13.50;;;8.77;;
15990;SDS011;8100;50.994;4.538;2023-04-06T04:21:32;14.07;;;8.98;;
15990;SDS011;8100;50.994;4.538;2023-04-06T04:24:20;16.02;;;9.68;;
15990;SDS011;8100;50.994;4.538;2023-04-06T04:27:09;13.20;;;8.65;;
15990;SDS011;8100;50.994;4.538;2023-04-06T04:29:56;15.40;;;8.88;;
15990;SDS011;8100;50.994;4.538;2023-04-06T04:32:43;16.00;;;8.57;;
15990;SDS011;8100;50.994;4.538;2023-04-06T04:35:31;18.55;;;9.18;;
15990;SDS011;8100;50.994;4.538;2023-04-06T04:38:18;17.50;;;9.10;;
15990;SDS011;8100;50.994;4.538;2023-04-06T04:41:06;20.67;;;9.82;;
15990;SDS011;8100;50.994;4.538;2023-04-06T04:43:54;15.48;;;9.15;;
15990;SDS011;8100;50.994;4.538;2023-04-06T04:46:42;18.80;;;9.48;;
15990;SDS011;8100;50.994;4.538;2023-04-06T04:49:29;20.52;;;9.93;;
15990;SDS011;8100;50.994;4.538;2023-04-06T04:52:16;21.98;;;9.90;;
15990;SDS011;8100;50.994;4.538;2023-04-06T04:55:04;24.67;;;9.57;;
15990;SDS011;8100;50.994;4.538;2023-04-06T04:57:52;31.52;;;10.10;;
15990;SDS011;8100;50.994;4.538;2023-04-06T05:00:40;20.20;;;9.20;;
15990;SDS011;8100;50.994;4.538;2023-04-06T05:03:28;17.65;;;8.93;;
15990;SDS011;8100;50.994;4.538;2023-04-06T05:06:15;20.33;;;10.05;;
15990;SDS011;8100;50.994;4.538;2023-04-06T05:09:04;19.08;;;10.07;;
15990;SDS011;8100;50.994;4.538;2023-04-06T05:11:51;18.95;;;9.73;;
15990;SDS011;8100;50.994;4.538;2023-04-06T05:14:39;17.08;;;9.35;;
15990;SDS011;8100;50.994;4.538;2023-04-06T05:17:28;15.68;;;9.27;;
15990;SDS011;8100;50.994;4.538;2023-04-06T05:20:15;16.90;;;8.82;;
15990;SDS011;8100;50.994;4.538;2023-04-06T05:23:03;13.40;;;8.40;;
15990;SDS011;8100;50.994;4.538;2023-04-06T05:25:50;15.73;;;9.13;;
15990;SDS011;8100;50.994;4.538;2023-04-06T05:28:37;15.52;;;9.02;;
15990;SDS011;8100;50.994;4.538;2023-04-06T05:31:25;14.77;;;8.98;;
15990;SDS011;8100;50.994;4.538;2023-04-06T05:34:14;16.05;;;9.18;;
15990;SDS011;8100;50.994;4.538;2023-04-06T05:37:01;18.10;;;9.43;;
15990;SDS011;8100;50.994;4.538;2023-04-06T05:39:48;19.67;;;9.30;;
15990;SDS011;8100;50.994;4.538;2023-04-06T05:42:36;18.02;;;9.80;;
15990;SDS011;8100;50.994;4.538;2023-04-06T05:45:24;16.88;;;9.30;;
15990;SDS011;8100;50.994;4.538;2023-04-06T05:48:11;14.68;;;9.05;;
15990;SDS011;8100;50.994;4.538;2023-04-06T05:51:00;14.13;;;9.02;;
15990;SDS011;8100;50.994;4.538;2023-04-06T05:53:51;20.48;;;9.85;;
15990;SDS011;8100;50.994;4.538;2023-04-06T05:56:38;17.50;;;10.23;;
15990;SDS011;8100;50.994;4.538;2023-04-06T05:59:26;17.83;;;9.65;;
15990;SDS011;8100;50.994;4.538;2023-04-06T06:02:14;20.55;;;10.45;;
15990;SDS011;8100;50.994;4.538;2023-04-06T06:05:01;28.83;;;11.57;;
15990;SDS011;8100;50.994;4.538;2023-04-06T06:07:50;23.20;;;10.93;;
15990;SDS011;8100;50.994;4.538;2023-04-06T06:10:38;21.60;;;11.00;;
15990;SDS011;8100;50.994;4.538;2023-04-06T06:13:26;21.52;;;11.18;;
15990;SDS011;8100;50.994;4.538;2023-04-06T06:16:13;20.48;;;10.68;;
15990;SDS011;8100;50.994;4.538;2023-04-06T06:19:01;21.73;;;11.35;;
15990;SDS011;8100;50.994;4.538;2023-04-06T06:21:48;22.73;;;11.68;;
15990;SDS011;8100;50.994;4.538;2023-04-06T06:24:37;22.52;;;11.93;;
15990;SDS011;8100;50.994;4.538;2023-04-06T06:27:26;26.88;;;11.98;;
15990;SDS011;8100;50.994;4.538;2023-04-06T06:33:08;20.90;;;11.38;;
15990;SDS011;8100;50.994;4.538;2023-04-06T06:35:55;25.88;;;11.02;;
15990;SDS011;8100;50.994;4.538;2023-04-06T06:38:43;18.30;;;10.95;;
15990;SDS011;8100;50.994;4.538;2023-04-06T06:41:32;21.27;;;11.32;;
15990;SDS011;8100;50.994;4.538;2023-04-06T06:44:20;21.30;;;11.10;;
15990;SDS011;8100;50.994;4.538;2023-04-06T06:47:07;22.67;;;11.23;;
15990;SDS011;8100;50.994;4.538;2023-04-06T06:49:54;20.58;;;11.00;;
15990;SDS011;8100;50.994;4.538;2023-04-06T06:52:42;27.88;;;12.05;;
15990;SDS011;8100;50.994;4.538;2023-04-06T06:55:29;22.40;;;11.07;;
15990;SDS011;8100;50.994;4.538;2023-04-06T06:58:18;21.48;;;11.48;;
15990;SDS011;8100;50.994;4.538;2023-04-06T07:01:06;20.60;;;11.35;;
15990;SDS011;8100;50.994;4.538;2023-04-06T07:03:53;22.60;;;11.63;;
15990;SDS011;8100;50.994;4.538;2023-04-06T07:06:41;18.45;;;11.63;;
15990;SDS011;8100;50.994;4.538;2023-04-06T07:09:29;18.45;;;11.15;;
15990;SDS011;8100;50.994;4.538;2023-04-06T07:12:17;19.30;;;11.00;;
15990;SDS011;8100;50.994;4.538;2023-04-06T07:15:06;18.42;;;10.50;;
15990;SDS011;8100;50.994;4.538;2023-04-06T07:17:55;20.77;;;11.25;;
15990;SDS011;8100;50.994;4.538;2023-04-06T07:20:43;23.58;;;11.88;;
15990;SDS011;8100;50.994;4.538;2023-04-06T07:23:31;19.75;;;10.82;;
15990;SDS011;8100;50.994;4.538;2023-04-06T07:26:19;21.65;;;11.45;;
15990;SDS011;8100;50.994;4.538;2023-04-06T07:29:06;18.30;;;10.50;;
15990;SDS011;8100;50.994;4.538;2023-04-06T07:31:58;24.95;;;12.23;;
15990;SDS011;8100;50.994;4.538;2023-04-06T07:34:46;27.33;;;11.00;;
15990;SDS011;8100;50.994;4.538;2023-04-06T07:37:34;19.90;;;10.95;;
15990;SDS011;8100;50.994;4.538;2023-04-06T07:40:21;18.33;;;11.48;;
15990;SDS011;8100;50.994;4.538;2023-04-06T07:43:09;17.70;;;11.07;;
15990;SDS011;8100;50.994;4.538;2023-04-06T07:45:57;17.42;;;11.15;;
15990;SDS011;8100;50.994;4.538;2023-04-06T07:48:53;21.95;;;10.20;;
15990;SDS011;8100;50.994;4.538;2023-04-06T07:51:44;17.20;;;10.98;;
15990;SDS011;8100;50.994;4.538;2023-04-06T07:54:33;18.98;;;10.45;;
15990;SDS011;8100;50.994;4.538;2023-04-06T07:57:22;18.33;;;9.40;;
15990;SDS011;8100;50.994;4.538;2023-04-06T08:00:09;15.65;;;9.40;;
15990;SDS011;8100;50.994;4.538;2023-04-06T08:02:57;17.63;;;8.88;;
15990;SDS011;8100;50.994;4.538;2023-04-06T08:05:46;13.15;;;8.57;;
15990;SDS011;8100;50.994;4.538;2023-04-06T08:08:33;15.43;;;8.73;;
15990;SDS011;8100;50.994;4.538;2023-04-06T08:11:21;12.55;;;8.13;;
15990;SDS011;8100;50.994;4.538;2023-04-06T08:14:08;15.40;;;8.93;;
15990;SDS011;8100;50.994;4.538;2023-04-06T08:16:56;13.30;;;8.65;;
15990;SDS011;8100;50.994;4.538;2023-04-06T08:19:43;14.40;;;7.80;;
15990;SDS011;8100;50.994;4.538;2023-04-06T08:22:32;12.32;;;7.70;;
15990;SDS011;8100;50.994;4.538;2023-04-06T08:25:19;11.32;;;7.18;;
15990;SDS011;8100;50.994;4.538;2023-04-06T08:28:07;11.32;;;6.80;;
15990;SDS011;8100;50.994;4.538;2023-04-06T08:30:55;9.82;;;6.40;;
15990;SDS011;8100;50.994;4.538;2023-04-06T08:33:45;12.05;;;6.72;;
15990;SDS011;8100;50.994;4.538;2023-04-06T08:36:32;10.18;;;5.75;;
15990;SDS011;8100;50.994;4.538;2023-04-06T08:39:21;10.73;;;6.13;;
15990;SDS011;8100;50.994;4.538;2023-04-06T08:42:12;9.93;;;5.97;;
15990;SDS011;8100;50.994;4.538;2023-04-06T08:45:06;12.95;;;6.40;;
15990;SDS011;8100;50.994;4.538;2023-04-06T08:47:54;10.18;;;5.50;;
15990;SDS011;8100;50.994;4.538;2023-04-06T08:50:47;9.15;;;5.30;;
15990;SDS011;8100;50.994;4.538;2023-04-06T08:53:34;8.60;;;4.90;;
15990;SDS011;8100;50.994;4.538;2023-04-06T08:56:23;7.93;;;4.90;;
15990;SDS011;8100;50.994;4.538;2023-04-06T08:59:11;8.52;;;4.88;;
15990;SDS011;8100;50.994;4.538;2023-04-06T09:01:59;7.57;;;4.63;;
15990;SDS011;8100;50.994;4.538;2023-04-06T09:04:52;7.90;;;4.90;;
15990;SDS011;8100;50.994;4.538;2023-04-06T09:07:40;10.00;;;5.30;;
15990;SDS011;8100;50.994;4.538;2023-04-06T09:10:28;8.13;;;5.30;;
15990;SDS011;8100;50.994;4.538;2023-04-06T09:13:17;8.02;;;5.22;;
15990;SDS011;8100;50.994;4.538;2023-04-06T09:16:04;7.22;;;4.85;;
15990;SDS011;8100;50.994;4.538;2023-04-06T09:18:52;9.10;;;5.53;;
15990;SDS011;8100;50.994;4.538;2023-04-06T09:21:40;12.30;;;5.47;;
15990;SDS011;8100;50.994;4.538;2023-04-06T09:24:27;8.35;;;5.05;;
15990;SDS011;8100;50.994;4.538;2023-04-06T09:27:15;8.95;;;5.00;;
15990;SDS011;8100;50.994;4.538;2023-04-06T09:30:05;7.90;;;5.00;;
15990;SDS011;8100;50.994;4.538;2023-04-06T09:32:54;7.97;;;5.10;;
15990;SDS011;8100;50.994;4.538;2023-04-06T09:35:48;9.05;;;4.90;;
15990;SDS011;8100;50.994;4.538;2023-04-06T09:38:36;7.50;;;5.30;;
15990;SDS011;8100;50.994;4.538;2023-04-06T09:41:25;9.52;;;5.50;;
15990;SDS011;8100;50.994;4.538;2023-04-06T09:44:13;11.27;;;6.00;;
15990;SDS011;8100;50.994;4.538;2023-04-06T09:47:01;10.45;;;6.00;;
15990;SDS011;8100;50.994;4.538;2023-04-06T09:49:55;8.60;;;5.72;;
15990;SDS011;8100;50.994;4.538;2023-04-06T09:52:46;9.25;;;5.97;;
15990;SDS011;8100;50.994;4.538;2023-04-06T09:55:36;10.73;;;6.47;;
15990;SDS011;8100;50.994;4.538;2023-04-06T09:58:29;11.73;;;6.25;;
15990;SDS011;8100;50.994;4.538;2023-04-06T10:01:23;9.18;;;6.28;;
15990;SDS011;8100;50.994;4.538;2023-04-06T10:04:19;10.35;;;6.38;;
15990;SDS011;8100;50.994;4.538;2023-04-06T10:07:14;11.13;;;6.50;;
15990;SDS011;8100;50.994;4.538;2023-04-06T10:10:02;10.48;;;6.38;;
15990;SDS011;8100;50.994;4.538;2023-04-06T10:12:50;10.85;;;6.47;;
15990;SDS011;8100;50.994;4.538;2023-04-06T10:15:38;11.18;;;6.45;;
15990;SDS011;8100;50.994;4.538;2023-04-06T10:18:26;12.85;;;7.38;;
15990;SDS011;8100;50.994;4.538;2023-04-06T10:21:16;10.50;;;6.57;;
15990;SDS011;8100;50.994;4.538;2023-04-06T10:24:07;9.30;;;6.63;;
15990;SDS011;8100;50.994;4.538;2023-04-06T10:26:57;11.70;;;6.32;;
15990;SDS011;8100;50.994;4.538;2023-04-06T10:29:46;10.70;;;6.75;;
15990;SDS011;8100;50.994;4.538;2023-04-06T10:32:34;11.05;;;6.90;;
15990;SDS011;8100;50.994;4.538;2023-04-06T10:35:23;10.70;;;6.07;;
15990;SDS011;8100;50.994;4.538;2023-04-06T10:38:12;9.13;;;6.05;;
15990;SDS011;8100;50.994;4.538;2023-04-06T10:41:03;11.80;;;6.50;;
15990;SDS011;8100;50.994;4.538;2023-04-06T10:43:54;8.50;;;6.55;;
15990;SDS011;8100;50.994;4.538;2023-04-06T10:46:42;10.32;;;6.03;;
15990;SDS011;8100;50.994;4.538;2023-04-06T10:49:40;8.73;;;5.57;;
15990;SDS011;8100;50.994;4.538;2023-04-06T10:52:27;11.80;;;5.97;;
15990;SDS011;8100;50.994;4.538;2023-04-06T10:55:16;9.27;;;6.10;;
15990;SDS011;8100;50.994;4.538;2023-04-06T10:58:05;9.52;;;5.75;;
15990;SDS011;8100;50.994;4.538;2023-04-06T11:00:53;8.85;;;5.65;;
15990;SDS011;8100;50.994;4.538;2023-04-06T11:03:44;9.48;;;5.70;;
15990;SDS011;8100;50.994;4.538;2023-04-06T11:06:33;7.40;;;5.00;;
15990;SDS011;8100;50.994;4.538;2023-04-06T11:09:24;8.68;;;5.78;;
15990;SDS011;8100;50.994;4.538;2023-04-06T11:12:21;8.38;;;5.72;;
15990;SDS011;8100;50.994;4.538;2023-04-06T11:15:10;10.13;;;6.60;;
15990;SDS011;8100;50.994;4.538;2023-04-06T11:17:58;9.30;;;6.50;;
15990;SDS011;8100;50.994;4.538;2023-04-06T11:20:49;10.40;;;6.93;;
15990;SDS011;8100;50.994;4.538;2023-04-06T11:23:36;9.88;;;6.40;;
15990;SDS011;8100;50.994;4.538;2023-04-06T11:26:24;12.52;;;6.80;;
15990;SDS011;8100;50.994;4.538;2023-04-06T11:29:13;9.40;;;6.47;;
15990;SDS011;8100;50.994;4.538;2023-04-06T11:32:02;8.65;;;5.68;;
15990;SDS011;8100;50.994;4.538;2023-04-06T11:34:50;9.55;;;6.40;;
15990;SDS011;8100;50.994;4.538;2023-04-06T11:37:37;8.55;;;6.03;;
15990;SDS011;8100;50.994;4.538;2023-04-06T11:40:25;10.13;;;6.75;;
15990;SDS011;8100;50.994;4.538;2023-04-06T11:43:14;9.75;;;6.13;;
15990;SDS011;8100;50.994;4.538;2023-04-06T11:46:03;8.88;;;6.10;;
15990;SDS011;8100;50.994;4.538;2023-04-06T11:48:52;10.57;;;6.70;;
15990;SDS011;8100;50.994;4.538;2023-04-06T11:51:45;12.07;;;6.43;;
15990;SDS011;8100;50.994;4.538;2023-04-06T11:54:33;9.88;;;6.30;;
15990;SDS011;8100;50.994;4.538;2023-04-06T11:57:22;8.40;;;6.45;;
15990;SDS011;8100;50.994;4.538;2023-04-06T12:00:11;9.90;;;6.28;;
15990;SDS011;8100;50.994;4.538;2023-04-06T12:03:00;8.70;;;6.03;;
15990;SDS011;8100;50.994;4.538;2023-04-06T12:05:47;9.80;;;6.32;;
15990;SDS011;8100;50.994;4.538;2023-04-06T12:08:35;9.30;;;6.43;;
15990;SDS011;8100;50.994;4.538;2023-04-06T12:11:22;9.68;;;6.35;;
15990;SDS011;8100;50.994;4.538;2023-04-06T12:14:10;9.93;;;6.80;;
15990;SDS011;8100;50.994;4.538;2023-04-06T12:16:57;9.13;;;6.13;;
15990;SDS011;8100;50.994;4.538;2023-04-06T12:19:46;10.25;;;6.32;;
15990;SDS011;8100;50.994;4.538;2023-04-06T12:22:33;10.20;;;6.13;;
15990;SDS011;8100;50.994;4.538;2023-04-06T12:25:21;10.38;;;5.80;;
15990;SDS011;8100;50.994;4.538;2023-04-06T12:28:09;10.90;;;6.07;;
15990;SDS011;8100;50.994;4.538;2023-04-06T12:30:56;8.80;;;5.97;;
15990;SDS011;8100;50.994;4.538;2023-04-06T12:33:46;8.68;;;6.00;;
15990;SDS011;8100;50.994;4.538;2023-04-06T12:36:36;8.13;;;5.57;;
15990;SDS011;8100;50.994;4.538;2023-04-06T12:39:23;13.38;;;8.27;;
15990;SDS011;8100;50.994;4.538;2023-04-06T12:42:11;10.52;;;6.88;;
15990;SDS011;8100;50.994;4.538;2023-04-06T12:44:59;7.53;;;5.60;;
15990;SDS011;8100;50.994;4.538;2023-04-06T12:47:46;8.60;;;6.25;;
15990;SDS011;8100;50.994;4.538;2023-04-06T12:50:34;8.82;;;6.10;;
15990;SDS011;8100;50.994;4.538;2023-04-06T12:53:23;8.38;;;5.60;;
15990;SDS011;8100;50.994;4.538;2023-04-06T12:56:11;8.48;;;6.15;;
15990;SDS011;8100;50.994;4.538;2023-04-06T12:58:59;8.75;;;6.38;;
15990;SDS011;8100;50.994;4.538;2023-04-06T13:01:47;7.47;;;5.28;;
15990;SDS011;8100;50.994;4.538;2023-04-06T13:04:34;9.52;;;5.88;;
15990;SDS011;8100;50.994;4.538;2023-04-06T13:07:21;7.40;;;5.35;;
15990;SDS011;8100;50.994;4.538;2023-04-06T13:10:10;9.65;;;6.10;;
15990;SDS011;8100;50.994;4.538;2023-04-06T13:12:58;8.55;;;5.72;;
15990;SDS011;8100;50.994;4.538;2023-04-06T13:15:45;9.00;;;5.88;;
15990;SDS011;8100;50.994;4.538;2023-04-06T13:18:33;7.65;;;5.28;;
15990;SDS011;8100;50.994;4.538;2023-04-06T13:21:22;8.57;;;5.45;;
15990;SDS011;8100;50.994;4.538;2023-04-06T13:24:09;9.48;;;6.85;;
15990;SDS011;8100;50.994;4.538;2023-04-06T13:26:59;7.63;;;5.30;;
15990;SDS011;8100;50.994;4.538;2023-04-06T13:29:46;8.65;;;6.05;;
15990;SDS011;8100;50.994;4.538;2023-04-06T13:32:34;8.18;;;5.80;;
15990;SDS011;8100;50.994;4.538;2023-04-06T13:35:21;7.05;;;5.40;;
15990;SDS011;8100;50.994;4.538;2023-04-06T13:38:09;8.43;;;5.68;;
15990;SDS011;8100;50.994;4.538;2023-04-06T13:40:56;6.93;;;5.28;;
15990;SDS011;8100;50.994;4.538;2023-04-06T13:43:45;7.18;;;5.40;;
15990;SDS011;8100;50.994;4.538;2023-04-06T13:46:32;9.18;;;5.97;;
15990;SDS011;8100;50.994;4.538;2023-04-06T13:49:20;9.60;;;5.80;;
15990;SDS011;8100;50.994;4.538;2023-04-06T13:52:07;7.32;;;5.50;;
15990;SDS011;8100;50.994;4.538;2023-04-06T13:54:55;7.93;;;5.80;;
15990;SDS011;8100;50.994;4.538;2023-04-06T13:57:42;11.52;;;7.53;;
15990;SDS011;8100;50.994;4.538;2023-04-06T14:00:31;9.55;;;6.32;;
15990;SDS011;8100;50.994;4.538;2023-04-06T14:03:18;9.50;;;5.80;;
15990;SDS011;8100;50.994;4.538;2023-04-06T14:06:10;8.90;;;6.07;;
15990;SDS011;8100;50.994;4.538;2023-04-06T14:08:57;9.00;;;5.90;;
15990;SDS011;8100;50.994;4.538;2023-04-06T14:11:45;8.13;;;5.93;;
15990;SDS011;8100;50.994;4.538;2023-04-06T14:14:32;9.05;;;6.07;;
15990;SDS011;8100;50.994;4.538;2023-04-06T14:17:21;9.82;;;6.38;;
15990;SDS011;8100;50.994;4.538;2023-04-06T14:20:08;13.38;;;8.05;;
15990;SDS011;8100;50.994;4.538;2023-04-06T14:22:59;10.07;;;6.85;;
15990;SDS011;8100;50.994;4.538;2023-04-06T14:25:46;8.50;;;6.00;;
15990;SDS011;8100;50.994;4.538;2023-04-06T14:28:34;9.18;;;6.22;;
15990;SDS011;8100;50.994;4.538;2023-04-06T14:31:21;8.43;;;6.38;;
15990;SDS011;8100;50.994;4.538;2023-04-06T14:34:10;10.23;;;6.93;;
15990;SDS011;8100;50.994;4.538;2023-04-06T14:36:57;10.38;;;6.20;;
15990;SDS011;8100;50.994;4.538;2023-04-06T14:39:44;9.25;;;5.70;;
15990;SDS011;8100;50.994;4.538;2023-04-06T14:42:32;8.68;;;6.05;;
15990;SDS011;8100;50.994;4.538;2023-04-06T14:45:19;8.35;;;5.82;;
15990;SDS011;8100;50.994;4.538;2023-04-06T14:48:07;8.13;;;5.60;;
15990;SDS011;8100;50.994;4.538;2023-04-06T14:50:58;8.38;;;5.85;;
15990;SDS011;8100;50.994;4.538;2023-04-06T14:53:45;7.18;;;5.70;;
15990;SDS011;8100;50.994;4.538;2023-04-06T14:56:33;10.57;;;6.95;;
15990;SDS011;8100;50.994;4.538;2023-04-06T14:59:20;10.68;;;6.00;;
15990;SDS011;8100;50.994;4.538;2023-04-06T15:02:07;8.18;;;5.95;;
15990;SDS011;8100;50.994;4.538;2023-04-06T15:04:54;7.68;;;5.97;;
15990;SDS011;8100;50.994;4.538;2023-04-06T15:07:43;9.70;;;6.30;;
15990;SDS011;8100;50.994;4.538;2023-04-06T15:10:30;8.93;;;6.05;;
15990;SDS011;8100;50.994;4.538;2023-04-06T15:13:18;8.50;;;6.10;;
15990;SDS011;8100;50.994;4.538;2023-04-06T15:16:05;9.25;;;6.03;;
15990;SDS011;8100;50.994;4.538;2023-04-06T15:18:53;8.35;;;6.05;;
15990;SDS011;8100;50.994;4.538;2023-04-06T15:21:40;8.88;;;6.22;;
15990;SDS011;8100;50.994;4.538;2023-04-06T15:24:29;9.68;;;6.63;;
15990;SDS011;8100;50.994;4.538;2023-04-06T15:27:16;8.40;;;6.68;;
15990;SDS011;8100;50.994;4.538;2023-04-06T15:30:03;10.57;;;6.88;;
15990;SDS011;8100;50.994;4.538;2023-04-06T15:32:52;11.32;;;6.90;;
15990;SDS011;8100;50.994;4.538;2023-04-06T15:35:41;10.02;;;6.93;;
15990;SDS011;8100;50.994;4.538;2023-04-06T15:38:28;9.27;;;6.85;;
15990;SDS011;8100;50.994;4.538;2023-04-06T15:41:17;8.55;;;6.07;;
15990;SDS011;8100;50.994;4.538;2023-04-06T15:44:05;8.52;;;6.32;;
15990;SDS011;8100;50.994;4.538;2023-04-06T15:46:52;11.02;;;6.85;;
15990;SDS011;8100;50.994;4.538;2023-04-06T15:49:40;10.13;;;6.72;;
15990;SDS011;8100;50.994;4.538;2023-04-06T15:52:27;10.52;;;6.57;;
15990;SDS011;8100;50.994;4.538;2023-04-06T15:55:14;12.80;;;7.25;;
15990;SDS011;8100;50.994;4.538;2023-04-06T15:58:03;11.32;;;7.40;;
15990;SDS011;8100;50.994;4.538;2023-04-06T16:00:51;11.13;;;7.43;;
15990;SDS011;8100;50.994;4.538;2023-04-06T16:03:38;11.75;;;7.28;;
15990;SDS011;8100;50.994;4.538;2023-04-06T16:06:26;12.68;;;7.78;;
15990;SDS011;8100;50.994;4.538;2023-04-06T16:09:13;11.25;;;7.38;;
15990;SDS011;8100;50.994;4.538;2023-04-06T16:12:00;13.50;;;7.82;;
15990;SDS011;8100;50.994;4.538;2023-04-06T16:14:49;13.45;;;7.80;;
15990;SDS011;8100;50.994;4.538;2023-04-06T16:17:36;12.48;;;8.10;;
15990;SDS011;8100;50.994;4.538;2023-04-06T16:20:23;21.85;;;13.10;;
15990;SDS011;8100;50.994;4.538;2023-04-06T16:23:11;14.45;;;8.98;;
15990;SDS011;8100;50.994;4.538;2023-04-06T16:25:58;13.75;;;9.02;;
15990;SDS011;8100;50.994;4.538;2023-04-06T16:28:46;17.17;;;9.15;;
15990;SDS011;8100;50.994;4.538;2023-04-06T16:31:35;15.18;;;10.18;;
15990;SDS011;8100;50.994;4.538;2023-04-06T16:34:22;12.32;;;8.55;;
15990;SDS011;8100;50.994;4.538;2023-04-06T16:37:10;15.93;;;8.98;;
15990;SDS011;8100;50.994;4.538;2023-04-06T16:39:57;12.68;;;8.45;;
15990;SDS011;8100;50.994;4.538;2023-04-06T16:42:44;13.88;;;8.50;;
15990;SDS011;8100;50.994;4.538;2023-04-06T16:45:32;13.32;;;8.48;;
15990;SDS011;8100;50.994;4.538;2023-04-06T16:48:21;16.75;;;8.98;;
15990;SDS011;8100;50.994;4.538;2023-04-06T16:51:09;12.50;;;8.82;;
15990;SDS011;8100;50.994;4.538;2023-04-06T16:53:56;13.30;;;9.20;;
15990;SDS011;8100;50.994;4.538;2023-04-06T16:56:44;15.00;;;8.68;;
15990;SDS011;8100;50.994;4.538;2023-04-06T16:59:31;13.52;;;8.82;;